createdAt,value
2022-07-28T00:00:15.448Z,1131.34
2022-07-28T00:01:16.534Z,1131.49
2022-07-28T00:02:15.484Z,1131.62
2022-07-28T00:03:15.523Z,1131.73
2022-07-28T00:04:15.671Z,1131.81
2022-07-28T00:05:15.456Z,1131.9
2022-07-28T00:06:15.458Z,1131.96
2022-07-28T00:07:18.482Z,1132.07
2022-07-28T00:08:15.462Z,1132.05
2022-07-28T00:09:15.467Z,1132.1
2022-07-28T00:10:15.463Z,1132.08
2022-07-28T00:11:15.469Z,1132.12
2022-07-28T00:12:15.468Z,1132.17
2022-07-28T00:13:15.469Z,1132.2
2022-07-28T00:14:15.881Z,1132.28
2022-07-28T00:15:15.474Z,1132.24
2022-07-28T00:16:15.587Z,1132.28
2022-07-28T00:17:15.486Z,1132.3
2022-07-28T00:18:18.506Z,1132.33
2022-07-28T00:19:15.483Z,1132.36
2022-07-28T00:20:15.486Z,1132.35
2022-07-28T00:21:15.484Z,1132.4
2022-07-28T00:22:15.485Z,1132.39
2022-07-28T00:23:15.490Z,1132.39
2022-07-28T00:24:15.739Z,1132.43
2022-07-28T00:25:15.500Z,1132.48
2022-07-28T00:26:15.496Z,1132.49
2022-07-28T00:27:15.495Z,1132.44
2022-07-28T00:28:15.498Z,1132.52
2022-07-28T00:29:18.366Z,1132.52
2022-07-28T00:30:15.499Z,1132.54
2022-07-28T00:31:15.561Z,1132.45
2022-07-28T00:32:15.510Z,1132.5
2022-07-28T00:33:15.508Z,1132.46
2022-07-28T00:34:15.740Z,1132.58
2022-07-28T00:35:15.676Z,1132.55
2022-07-28T00:36:15.514Z,1132.55
2022-07-28T00:37:15.516Z,1132.58
2022-07-28T00:38:15.517Z,1132.57
2022-07-28T00:39:15.519Z,1132.57
2022-07-28T00:40:15.517Z,1132.52
2022-07-28T00:41:15.521Z,1132.54
2022-07-28T00:42:15.545Z,1132.54
2022-07-28T00:43:15.525Z,1132.57
2022-07-28T00:44:15.979Z,1132.58
2022-07-28T00:45:15.528Z,1132.56
2022-07-28T00:46:15.590Z,1132.59
2022-07-28T00:47:15.555Z,1132.58
2022-07-28T00:48:15.534Z,1132.61
2022-07-28T00:49:15.570Z,1132.61
2022-07-28T00:50:16.556Z,1132.6
2022-07-28T00:51:15.541Z,1132.56
2022-07-28T00:52:15.566Z,1132.54
2022-07-28T00:53:15.545Z,1132.57
2022-07-28T00:54:15.958Z,1132.54
2022-07-28T00:55:15.547Z,1132.55
2022-07-28T00:56:15.549Z,1132.57
2022-07-28T00:57:15.577Z,1132.55
2022-07-28T00:58:15.553Z,1132.55
2022-07-28T00:59:15.549Z,1132.6
2022-07-28T01:00:15.552Z,1132.61
2022-07-28T01:01:15.563Z,1132.57
2022-07-28T01:02:15.765Z,1132.64
2022-07-28T01:03:15.588Z,1132.55
2022-07-28T01:04:15.885Z,1132.55
2022-07-28T01:05:15.563Z,1132.55
2022-07-28T01:06:15.565Z,1132.52
2022-07-28T01:07:15.594Z,1132.5
2022-07-28T01:08:15.572Z,1132.42
2022-07-28T01:09:15.571Z,1132.43
2022-07-28T01:10:15.572Z,1132.42
2022-07-28T01:11:15.578Z,1132.41
2022-07-28T01:12:15.601Z,1132.37
2022-07-28T01:13:15.576Z,1132.42
2022-07-28T01:14:15.894Z,1132.37
2022-07-28T01:15:15.584Z,1132.35
2022-07-28T01:16:15.655Z,1132.38
2022-07-28T01:17:15.606Z,1132.37
2022-07-28T01:18:15.589Z,1132.33
2022-07-28T01:19:15.587Z,1132.35
2022-07-28T01:20:15.590Z,1132.34
2022-07-28T01:21:15.608Z,1132.34
2022-07-28T01:22:15.618Z,1132.34
2022-07-28T01:23:15.594Z,1132.33
2022-07-28T01:24:16.158Z,1132.27
2022-07-28T01:25:15.596Z,1132.29
2022-07-28T01:26:15.604Z,1132.3
2022-07-28T01:27:15.626Z,1132.31
2022-07-28T01:28:15.603Z,1132.29
2022-07-28T01:29:15.786Z,1132.29
2022-07-28T01:30:15.608Z,1132.26
2022-07-28T01:31:15.691Z,1132.27
2022-07-28T01:32:15.632Z,1132.23
2022-07-28T01:33:15.615Z,1132.22
2022-07-28T01:34:15.892Z,1132.13
2022-07-28T01:35:15.613Z,1132.09
2022-07-28T01:36:15.618Z,1132.03
2022-07-28T01:37:15.652Z,1132.02
2022-07-28T01:38:15.625Z,1131.93
2022-07-28T01:39:15.627Z,1131.83
2022-07-28T01:40:18.396Z,1131.8
2022-07-28T01:41:15.635Z,1131.75
2022-07-28T01:42:15.650Z,1131.78
2022-07-28T01:43:15.629Z,1131.7
2022-07-28T01:44:15.987Z,1131.68
2022-07-28T01:45:15.634Z,1131.73
2022-07-28T01:46:15.689Z,1131.69
2022-07-28T01:47:15.663Z,1131.76
2022-07-28T01:48:15.636Z,1131.74
2022-07-28T01:49:15.663Z,1131.73
2022-07-28T01:50:15.645Z,1131.73
2022-07-28T01:51:15.646Z,1131.75
2022-07-28T01:52:15.673Z,1131.79
2022-07-28T01:53:15.652Z,1131.74
2022-07-28T01:54:16.033Z,1131.77
2022-07-28T01:55:15.649Z,1131.79
2022-07-28T01:56:15.652Z,1131.78
2022-07-28T01:57:15.680Z,1131.75
2022-07-28T01:58:15.656Z,1131.8
2022-07-28T01:59:15.679Z,1131.71
2022-07-28T02:00:15.660Z,1131.72
2022-07-28T02:01:15.706Z,1131.7
2022-07-28T02:02:15.702Z,1131.65
2022-07-28T02:03:15.668Z,1131.62
2022-07-28T02:04:16.242Z,1131.66
2022-07-28T02:05:15.730Z,1131.66
2022-07-28T02:06:15.672Z,1131.62
2022-07-28T02:07:15.694Z,1131.56
2022-07-28T02:08:15.678Z,1131.5
2022-07-28T02:09:15.718Z,1131.47
2022-07-28T02:10:15.703Z,1131.46
2022-07-28T02:11:15.724Z,1131.37
2022-07-28T02:12:17.202Z,1131.35
2022-07-28T02:13:15.686Z,1131.3
2022-07-28T02:14:15.990Z,1131.26
2022-07-28T02:15:15.747Z,1131.25
2022-07-28T02:16:15.783Z,1131.24
2022-07-28T02:17:15.694Z,1131.22
2022-07-28T02:18:15.705Z,1131.12
2022-07-28T02:19:15.719Z,1131.14
2022-07-28T02:20:15.715Z,1131.15
2022-07-28T02:21:15.720Z,1131.11
2022-07-28T02:22:15.708Z,1131.06
2022-07-28T02:23:16.849Z,1130.99
2022-07-28T02:24:16.142Z,1130.98
2022-07-28T02:25:15.714Z,1131.01
2022-07-28T02:26:15.726Z,1130.97
2022-07-28T02:27:15.732Z,1130.98
2022-07-28T02:28:18.524Z,1130.94
2022-07-28T02:29:33.794Z,1130.89
2022-07-28T02:30:15.715Z,1130.79
2022-07-28T02:31:15.773Z,1130.76
2022-07-28T02:32:26.995Z,1130.74
2022-07-28T02:33:15.716Z,1130.71
2022-07-28T02:34:18.816Z,1130.6
2022-07-28T02:35:15.722Z,1130.63
2022-07-28T02:36:16.139Z,1130.5
2022-07-28T02:37:15.723Z,1130.43
2022-07-28T02:38:15.754Z,1130.45
2022-07-28T02:39:15.724Z,1130.43
2022-07-28T02:40:15.730Z,1130.33
2022-07-28T02:41:15.734Z,1130.29
2022-07-28T02:42:15.736Z,1130.25
2022-07-28T02:43:16.019Z,1130.22
2022-07-28T02:44:16.037Z,1130.16
2022-07-28T02:45:18.574Z,1130.1
2022-07-28T02:46:15.827Z,1130.07
2022-07-28T02:47:15.739Z,1130.04
2022-07-28T02:48:15.768Z,1130.07
2022-07-28T02:49:15.876Z,1129.98
2022-07-28T02:50:15.782Z,1129.96
2022-07-28T02:51:15.975Z,1129.89
2022-07-28T02:52:15.750Z,1129.89
2022-07-28T02:53:16.438Z,1129.78
2022-07-28T02:54:16.206Z,1129.84
2022-07-28T02:55:15.760Z,1129.85
2022-07-28T02:56:18.766Z,1129.8
2022-07-28T02:57:15.762Z,1129.8
2022-07-28T02:58:15.784Z,1129.76
2022-07-28T02:59:15.760Z,1129.76
2022-07-28T03:00:15.770Z,1129.7
2022-07-28T03:01:15.824Z,1129.69
2022-07-28T03:02:15.767Z,1129.6
2022-07-28T03:03:15.805Z,1129.49
2022-07-28T03:04:16.169Z,1129.49
2022-07-28T03:05:15.834Z,1129.4
2022-07-28T03:06:15.773Z,1129.36
2022-07-28T03:07:15.777Z,1129.32
2022-07-28T03:08:15.802Z,1129.35
2022-07-28T03:09:15.781Z,1129.27
2022-07-28T03:10:15.788Z,1129.15
2022-07-28T03:11:15.785Z,1129.02
2022-07-28T03:12:15.788Z,1128.98
2022-07-28T03:13:15.813Z,1128.89
2022-07-28T03:14:15.968Z,1128.79
2022-07-28T03:15:15.788Z,1128.85
2022-07-28T03:16:15.865Z,1128.8
2022-07-28T03:17:15.882Z,1128.69
2022-07-28T03:18:15.817Z,1128.68
2022-07-28T03:19:15.800Z,1128.6
2022-07-28T03:20:15.836Z,1128.56
2022-07-28T03:21:15.802Z,1128.51
2022-07-28T03:22:15.802Z,1128.39
2022-07-28T03:23:15.829Z,1128.36
2022-07-28T03:24:16.231Z,1128.26
2022-07-28T03:25:15.818Z,1128.19
2022-07-28T03:26:15.813Z,1128.15
2022-07-28T03:27:15.811Z,1128.1
2022-07-28T03:28:15.837Z,1128.12
2022-07-28T03:29:15.821Z,1128.06
2022-07-28T03:30:15.820Z,1128.02
2022-07-28T03:31:15.871Z,1127.97
2022-07-28T03:32:15.823Z,1127.85
2022-07-28T03:33:15.849Z,1127.83
2022-07-28T03:34:16.293Z,1127.79
2022-07-28T03:35:15.828Z,1127.64
2022-07-28T03:36:15.825Z,1127.68
2022-07-28T03:37:15.829Z,1127.54
2022-07-28T03:38:17.836Z,1127.56
2022-07-28T03:39:15.842Z,1127.51
2022-07-28T03:40:15.832Z,1127.49
2022-07-28T03:41:15.834Z,1127.5
2022-07-28T03:42:15.837Z,1127.57
2022-07-28T03:43:15.865Z,1127.49
2022-07-28T03:44:17.739Z,1127.44
2022-07-28T03:45:15.869Z,1127.56
2022-07-28T03:46:15.901Z,1127.4
2022-07-28T03:47:15.851Z,1127.41
2022-07-28T03:48:15.877Z,1127.33
2022-07-28T03:49:15.917Z,1127.34
2022-07-28T03:50:15.853Z,1127.3
2022-07-28T03:51:15.860Z,1127.2
2022-07-28T03:52:15.857Z,1127.26
2022-07-28T03:53:15.879Z,1127.26
2022-07-28T03:54:16.202Z,1127.26
2022-07-28T03:55:15.866Z,1127.29
2022-07-28T03:56:15.943Z,1127.33
2022-07-28T03:57:15.865Z,1127.34
2022-07-28T03:58:15.896Z,1127.25
2022-07-28T03:59:15.873Z,1127.24
2022-07-28T04:00:15.877Z,1127.22
2022-07-28T04:01:15.937Z,1127.15
2022-07-28T04:02:15.954Z,1127.15
2022-07-28T04:03:21.970Z,1127.04
2022-07-28T04:04:16.265Z,1126.99
2022-07-28T04:05:15.877Z,1126.98
2022-07-28T04:06:16.007Z,1126.82
2022-07-28T04:07:18.669Z,1126.73
2022-07-28T04:08:15.906Z,1126.8
2022-07-28T04:09:15.885Z,1126.76
2022-07-28T04:10:15.900Z,1126.78
2022-07-28T04:11:15.891Z,1126.74
2022-07-28T04:12:15.905Z,1126.74
2022-07-28T04:13:15.913Z,1126.76
2022-07-28T04:14:16.971Z,1126.9
2022-07-28T04:15:15.898Z,1126.87
2022-07-28T04:16:15.977Z,1126.85
2022-07-28T04:17:15.903Z,1126.82
2022-07-28T04:18:15.920Z,1126.88
2022-07-28T04:19:15.901Z,1126.87
2022-07-28T04:20:15.905Z,1126.87
2022-07-28T04:21:15.909Z,1126.83
2022-07-28T04:22:15.906Z,1126.85
2022-07-28T04:23:15.931Z,1126.72
2022-07-28T04:24:16.170Z,1126.67
2022-07-28T04:25:15.915Z,1126.7
2022-07-28T04:26:15.918Z,1126.67
2022-07-28T04:27:15.921Z,1126.69
2022-07-28T04:28:15.943Z,1126.61
2022-07-28T04:29:15.919Z,1126.73
2022-07-28T04:30:15.924Z,1126.86
2022-07-28T04:31:15.972Z,1126.97
2022-07-28T04:32:15.926Z,1127.04
2022-07-28T04:33:15.951Z,1127.21
2022-07-28T04:34:16.537Z,1127.35
2022-07-28T04:35:17.598Z,1127.43
2022-07-28T04:36:15.933Z,1127.56
2022-07-28T04:37:15.935Z,1127.74
2022-07-28T04:38:15.960Z,1127.86
2022-07-28T04:39:19.067Z,1128.14
2022-07-28T04:40:15.937Z,1128.21
2022-07-28T04:41:15.938Z,1128.4
2022-07-28T04:42:15.943Z,1128.44
2022-07-28T04:43:15.969Z,1128.65
2022-07-28T04:44:16.198Z,1128.68
2022-07-28T04:45:15.951Z,1128.69
2022-07-28T04:46:16.034Z,1128.61
2022-07-28T04:47:15.953Z,1128.66
2022-07-28T04:48:15.976Z,1128.65
2022-07-28T04:49:15.986Z,1128.59
2022-07-28T04:50:17.088Z,1128.58
2022-07-28T04:51:15.956Z,1128.66
2022-07-28T04:52:15.963Z,1128.85
2022-07-28T04:53:15.984Z,1129.04
2022-07-28T04:54:16.497Z,1129.15
2022-07-28T04:55:15.969Z,1129.45
2022-07-28T04:56:15.966Z,1129.75
2022-07-28T04:57:15.969Z,1129.99
2022-07-28T04:58:15.992Z,1130.17
2022-07-28T04:59:15.973Z,1130.38
2022-07-28T05:00:15.989Z,1130.47
2022-07-28T05:01:18.805Z,1130.6
2022-07-28T05:02:15.979Z,1130.69
2022-07-28T05:03:16.015Z,1130.87
2022-07-28T05:04:16.401Z,1130.86
2022-07-28T05:05:16.013Z,1130.95
2022-07-28T05:06:15.984Z,1131.02
2022-07-28T05:07:15.983Z,1131.09
2022-07-28T05:08:16.012Z,1131.21
2022-07-28T05:09:15.988Z,1131.29
2022-07-28T05:10:15.990Z,1131.43
2022-07-28T05:11:15.993Z,1131.46
2022-07-28T05:12:19.070Z,1131.52
2022-07-28T05:13:16.024Z,1131.55
2022-07-28T05:14:16.175Z,1131.6
2022-07-28T05:15:16.004Z,1131.61
2022-07-28T05:16:16.032Z,1131.72
2022-07-28T05:17:16.045Z,1131.79
2022-07-28T05:18:16.032Z,1131.78
2022-07-28T05:19:16.007Z,1131.75
2022-07-28T05:20:16.006Z,1131.77
2022-07-28T05:21:16.014Z,1131.85
2022-07-28T05:22:16.061Z,1131.86
2022-07-28T05:23:16.331Z,1131.93
2022-07-28T05:24:16.388Z,1131.89
2022-07-28T05:25:16.019Z,1131.96
2022-07-28T05:26:16.024Z,1131.97
2022-07-28T05:27:16.020Z,1131.99
2022-07-28T05:28:16.025Z,1131.96
2022-07-28T05:29:16.025Z,1132.01
2022-07-28T05:30:16.031Z,1131.98
2022-07-28T05:31:16.071Z,1131.98
2022-07-28T05:32:16.935Z,1131.98
2022-07-28T05:33:16.667Z,1132.02
2022-07-28T05:34:16.313Z,1131.99
2022-07-28T05:35:16.034Z,1131.99
2022-07-28T05:36:16.042Z,1131.96
2022-07-28T05:37:16.040Z,1131.9
2022-07-28T05:38:16.044Z,1131.88
2022-07-28T05:39:16.049Z,1131.86
2022-07-28T05:40:16.042Z,1131.75
2022-07-28T05:41:16.045Z,1131.69
2022-07-28T05:42:16.059Z,1131.64
2022-07-28T05:43:16.062Z,1131.55
2022-07-28T05:44:16.291Z,1131.44
2022-07-28T05:45:17.571Z,1131.34
2022-07-28T05:46:16.124Z,1131.26
2022-07-28T05:47:16.075Z,1131.06
2022-07-28T05:48:16.058Z,1130.85
2022-07-28T05:49:16.159Z,1130.65
2022-07-28T05:50:16.072Z,1130.4
2022-07-28T05:51:16.064Z,1130.06
2022-07-28T05:52:16.066Z,1129.73
2022-07-28T05:53:16.068Z,1129.52
2022-07-28T05:54:16.467Z,1129.22
2022-07-28T05:55:16.072Z,1129.02
2022-07-28T05:56:16.082Z,1128.83
2022-07-28T05:57:16.079Z,1128.65
2022-07-28T05:58:16.075Z,1128.38
2022-07-28T05:59:16.077Z,1128.07
2022-07-28T06:00:16.096Z,1127.65
2022-07-28T06:01:16.148Z,1127.17
2022-07-28T06:02:16.146Z,1126.7
2022-07-28T06:03:16.083Z,1126.37
2022-07-28T06:04:26.908Z,1126.12
2022-07-28T06:05:16.091Z,1125.92
2022-07-28T06:06:17.054Z,1125.8
2022-07-28T06:07:16.091Z,1125.53
2022-07-28T06:08:16.094Z,1125.34
2022-07-28T06:09:16.100Z,1124.95
2022-07-28T06:10:16.107Z,1124.31
2022-07-28T06:11:17.887Z,1123.76
2022-07-28T06:12:16.103Z,1123.11
2022-07-28T06:13:16.113Z,1122.53
2022-07-28T06:14:16.455Z,1122.01
2022-07-28T06:15:16.108Z,1121.63
2022-07-28T06:16:16.166Z,1120.97
2022-07-28T06:17:16.113Z,1120.21
2022-07-28T06:18:16.110Z,1119.58
2022-07-28T06:19:16.115Z,1118.83
2022-07-28T06:20:16.118Z,1118.17
2022-07-28T06:21:16.121Z,1117.1
2022-07-28T06:22:16.121Z,1115.91
2022-07-28T06:23:16.231Z,1114.6
2022-07-28T06:24:16.421Z,1113.23
2022-07-28T06:25:16.129Z,1111.12
2022-07-28T06:26:16.128Z,1106.42
2022-07-28T06:27:16.132Z,1100.26
2022-07-28T06:28:16.132Z,1094.93
2022-07-28T06:29:16.159Z,1090.16
2022-07-28T06:30:16.133Z,1085.15
2022-07-28T06:31:16.163Z,1080.41
2022-07-28T06:32:16.143Z,1075.46
2022-07-28T06:33:17.329Z,1070.09
2022-07-28T06:34:17.675Z,1064.52
2022-07-28T06:35:16.147Z,1060.93
2022-07-28T06:36:16.145Z,1057.38
2022-07-28T06:37:16.156Z,1053.04
2022-07-28T06:38:16.150Z,1047.47
2022-07-28T06:39:16.149Z,1041.95
2022-07-28T06:40:16.152Z,1036.02
2022-07-28T06:41:16.154Z,1030.37
2022-07-28T06:42:16.162Z,1025.16
2022-07-28T06:43:16.159Z,1022.8
2022-07-28T06:44:16.412Z,1023.66
2022-07-28T06:45:19.428Z,1022.85
2022-07-28T06:46:16.232Z,1023.17
2022-07-28T06:47:16.203Z,1024.4
2022-07-28T06:48:16.169Z,1023.81
2022-07-28T06:49:16.479Z,1020.52
2022-07-28T06:50:25.489Z,1017.15
2022-07-28T06:51:16.175Z,1012.38
2022-07-28T06:52:16.177Z,1007.95
2022-07-28T06:53:16.186Z,1006.59
2022-07-28T06:54:16.583Z,1004.36
2022-07-28T06:55:16.205Z,1004.44
2022-07-28T06:56:16.282Z,1003.19
2022-07-28T06:57:16.877Z,996.99
2022-07-28T06:58:16.185Z,993.18
2022-07-28T06:59:16.554Z,993.94
2022-07-28T07:00:16.188Z,993.04
2022-07-28T07:01:16.297Z,994.52
2022-07-28T07:02:16.194Z,996.04
2022-07-28T07:03:16.204Z,998.23
2022-07-28T07:04:16.762Z,1001.17
2022-07-28T07:05:16.198Z,996.19
2022-07-28T07:06:19.221Z,990.63
2022-07-28T07:07:16.907Z,987.81
2022-07-28T07:08:16.202Z,986.03
2022-07-28T07:09:16.214Z,980.68
2022-07-28T07:10:16.207Z,977.42
2022-07-28T07:11:16.209Z,975.83
2022-07-28T07:12:16.210Z,975.7
2022-07-28T07:13:16.216Z,970.74
2022-07-28T07:14:16.480Z,964.96
2022-07-28T07:15:16.219Z,961.65
2022-07-28T07:16:16.246Z,958.23
2022-07-28T07:17:19.062Z,953.79
2022-07-28T07:18:16.227Z,948.71
2022-07-28T07:19:16.224Z,943.6
2022-07-28T07:20:17.095Z,937.44
2022-07-28T07:21:16.228Z,932.28
2022-07-28T07:22:16.232Z,929.52
2022-07-28T07:23:16.235Z,926.71
2022-07-28T07:24:16.621Z,922.77
2022-07-28T07:25:16.235Z,918.87
2022-07-28T07:26:16.239Z,916.72
2022-07-28T07:27:16.238Z,913.83
2022-07-28T07:28:19.328Z,911.75
2022-07-28T07:29:16.246Z,909.62
2022-07-28T07:30:16.249Z,908.86
2022-07-28T07:31:16.289Z,906.22
2022-07-28T07:32:16.251Z,902.9
2022-07-28T07:33:16.254Z,900.88
2022-07-28T07:34:16.649Z,898.71
2022-07-28T07:35:16.262Z,896.54
2022-07-28T07:36:16.259Z,893.83
2022-07-28T07:37:16.258Z,890.98
2022-07-28T07:38:16.264Z,888.54
2022-07-28T07:39:19.124Z,885.86
2022-07-28T07:40:16.268Z,884.34
2022-07-28T07:41:16.267Z,881.47
2022-07-28T07:42:16.269Z,878.36
2022-07-28T07:43:16.272Z,876.15
2022-07-28T07:44:16.660Z,873.81
2022-07-28T07:45:16.277Z,872.31
2022-07-28T07:46:16.301Z,871.85
2022-07-28T07:47:16.282Z,874.14
2022-07-28T07:48:16.279Z,878.16
2022-07-28T07:49:16.355Z,881.15
2022-07-28T07:50:16.302Z,884.22
2022-07-28T07:51:16.287Z,886
2022-07-28T07:52:16.300Z,887.74
2022-07-28T07:53:16.289Z,889.07
2022-07-28T07:54:16.778Z,890.97
2022-07-28T07:55:16.298Z,894.59
2022-07-28T07:56:16.300Z,896.22
2022-07-28T07:57:16.302Z,896.19
2022-07-28T07:58:16.300Z,895.53
2022-07-28T07:59:16.301Z,894.3
2022-07-28T08:00:28.386Z,894.92
2022-07-28T08:01:16.327Z,895.03
2022-07-28T08:02:16.389Z,895.16
2022-07-28T08:03:16.311Z,895.05
2022-07-28T08:04:16.685Z,893.62
2022-07-28T08:05:16.319Z,890.62
2022-07-28T08:06:16.318Z,888.05
2022-07-28T08:07:16.315Z,884.46
2022-07-28T08:08:16.321Z,879.43
2022-07-28T08:09:16.321Z,874.72
2022-07-28T08:10:16.348Z,870.28
2022-07-28T08:11:16.323Z,867.2
2022-07-28T08:12:16.328Z,864.42
2022-07-28T08:13:16.329Z,861.86
2022-07-28T08:14:16.788Z,861.1
2022-07-28T08:15:16.362Z,860.48
2022-07-28T08:16:16.402Z,859.92
2022-07-28T08:17:16.478Z,859.8
2022-07-28T08:18:16.341Z,859.38
2022-07-28T08:19:16.340Z,859.11
2022-07-28T08:20:16.362Z,857.36
2022-07-28T08:21:16.344Z,855.04
2022-07-28T08:22:16.350Z,852.35
2022-07-28T08:23:16.349Z,850.27
2022-07-28T08:24:17.771Z,849.74
2022-07-28T08:25:16.374Z,849.55
2022-07-28T08:26:16.355Z,849.69
2022-07-28T08:27:16.356Z,848.37
2022-07-28T08:28:16.360Z,845.92
2022-07-28T08:29:16.360Z,843.37
2022-07-28T08:30:16.895Z,840.46
2022-07-28T08:31:16.388Z,835.85
2022-07-28T08:32:16.369Z,831.92
2022-07-28T08:33:16.365Z,828.8
2022-07-28T08:34:26.063Z,827.41
2022-07-28T08:35:32.742Z,825.15
2022-07-28T08:36:16.370Z,822.15
2022-07-28T08:37:16.389Z,818.41
2022-07-28T08:38:16.381Z,815.95
2022-07-28T08:39:16.380Z,814.2
2022-07-28T08:40:16.411Z,813.14
2022-07-28T08:41:16.381Z,811.26
2022-07-28T08:42:16.380Z,809.54
2022-07-28T08:43:16.390Z,807.33
2022-07-28T08:44:16.706Z,805.35
2022-07-28T08:45:16.412Z,802.33
2022-07-28T08:46:16.463Z,799.31
2022-07-28T08:47:16.414Z,797.54
2022-07-28T08:48:16.421Z,796.96
2022-07-28T08:49:16.503Z,794.72
2022-07-28T08:50:16.452Z,792.02
2022-07-28T08:51:16.403Z,788.14
2022-07-28T08:52:16.402Z,784.15
2022-07-28T08:53:16.419Z,781.48
2022-07-28T08:54:16.837Z,779.13
2022-07-28T08:55:19.633Z,776.14
2022-07-28T08:56:16.413Z,773.62
2022-07-28T08:57:16.409Z,771.85
2022-07-28T08:58:16.416Z,770.29
2022-07-28T08:59:16.419Z,768.12
2022-07-28T09:00:16.634Z,767.35
2022-07-28T09:01:19.569Z,768.26
2022-07-28T09:02:16.539Z,766.68
2022-07-28T09:03:16.476Z,764.94
2022-07-28T09:04:16.760Z,763.38
2022-07-28T09:05:16.462Z,761.79
2022-07-28T09:06:16.430Z,758.64
2022-07-28T09:07:16.429Z,755.81
2022-07-28T09:08:16.436Z,752.01
2022-07-28T09:09:16.437Z,747.58
2022-07-28T09:10:16.463Z,743.76
2022-07-28T09:11:16.439Z,739.1
2022-07-28T09:12:16.441Z,735.72
2022-07-28T09:13:16.441Z,733.6
2022-07-28T09:14:16.841Z,732.79
2022-07-28T09:15:16.475Z,733.41
2022-07-28T09:16:16.535Z,733.24
2022-07-28T09:17:16.451Z,731.5
2022-07-28T09:18:16.472Z,731.65
2022-07-28T09:19:16.453Z,733.88
2022-07-28T09:20:16.511Z,735.31
2022-07-28T09:21:16.462Z,734.68
2022-07-28T09:22:16.460Z,732.24
2022-07-28T09:23:33.667Z,726.92
2022-07-28T09:24:16.848Z,722.46
2022-07-28T09:25:16.468Z,717.73
2022-07-28T09:26:16.467Z,713.23
2022-07-28T09:27:16.476Z,709.28
2022-07-28T09:28:16.472Z,705.22
2022-07-28T09:29:16.474Z,701.49
2022-07-28T09:30:16.474Z,697.45
2022-07-28T09:31:16.631Z,693.51
2022-07-28T09:32:16.481Z,688.39
2022-07-28T09:33:40.807Z,682.73
2022-07-28T09:34:16.768Z,678.59
2022-07-28T09:35:16.485Z,675.46
2022-07-28T09:36:16.661Z,674.27
2022-07-28T09:37:16.490Z,674.45
2022-07-28T09:38:16.491Z,674.59
2022-07-28T09:39:16.523Z,673.37
2022-07-28T09:40:16.498Z,672.68
2022-07-28T09:41:16.498Z,670.2
2022-07-28T09:42:16.504Z,668.27
2022-07-28T09:43:16.503Z,664.26
2022-07-28T09:44:19.286Z,659.45
2022-07-28T09:45:24.698Z,654.29
2022-07-28T09:46:16.765Z,651.2
2022-07-28T09:47:16.725Z,651.07
2022-07-28T09:48:16.739Z,649.3
2022-07-28T09:49:16.666Z,646.95
2022-07-28T09:50:16.518Z,643.02
2022-07-28T09:51:16.541Z,640.13
2022-07-28T09:52:16.521Z,637.98
2022-07-28T09:53:16.525Z,636.51
2022-07-28T09:54:16.902Z,633.42
2022-07-28T09:55:19.533Z,631.76
2022-07-28T09:56:16.533Z,630.31
2022-07-28T09:57:16.526Z,629.93
2022-07-28T09:58:16.531Z,630.47
2022-07-28T09:59:16.536Z,633.39
2022-07-28T10:00:16.604Z,636.81
2022-07-28T10:01:16.589Z,639.12
2022-07-28T10:02:16.720Z,639.88
2022-07-28T10:03:16.626Z,642.35
2022-07-28T10:04:16.718Z,642.91
2022-07-28T10:05:16.557Z,641.48
2022-07-28T10:06:19.451Z,637.63
2022-07-28T10:07:16.549Z,632.06
2022-07-28T10:08:16.554Z,626.25
2022-07-28T10:09:16.600Z,621.62
2022-07-28T10:10:16.725Z,616.89
2022-07-28T10:11:16.562Z,611.52
2022-07-28T10:12:16.560Z,604.9
2022-07-28T10:13:16.567Z,600.17
2022-07-28T10:14:16.893Z,596.11
2022-07-28T10:15:16.572Z,591.78
2022-07-28T10:16:16.623Z,588.37
2022-07-28T10:17:16.575Z,587.05
2022-07-28T10:18:16.574Z,585.94
2022-07-28T10:19:16.635Z,583.45
2022-07-28T10:20:16.666Z,580.94
2022-07-28T10:21:16.579Z,581.86
2022-07-28T10:22:16.577Z,579.05
2022-07-28T10:23:16.584Z,575.99
2022-07-28T10:24:17.168Z,572.92
2022-07-28T10:25:16.593Z,570.26
2022-07-28T10:26:16.631Z,568.73
2022-07-28T10:27:16.591Z,565.06
2022-07-28T10:28:16.589Z,559.9
2022-07-28T10:29:16.590Z,555.47
2022-07-28T10:30:16.594Z,551.89
2022-07-28T10:31:16.652Z,550.74
2022-07-28T10:32:16.654Z,552.27
2022-07-28T10:33:16.600Z,555.75
2022-07-28T10:34:16.655Z,558.85
2022-07-28T10:35:16.623Z,560.17
2022-07-28T10:36:16.625Z,562.45
2022-07-28T10:37:16.648Z,564.41
2022-07-28T10:38:16.632Z,564.81
2022-07-28T10:39:16.612Z,567.08
2022-07-28T10:40:16.616Z,573.74
2022-07-28T10:41:16.635Z,578.15
2022-07-28T10:42:16.618Z,583.42
2022-07-28T10:43:16.623Z,586.8
2022-07-28T10:44:16.836Z,589.47
2022-07-28T10:45:16.627Z,588.16
2022-07-28T10:46:16.903Z,584.02
2022-07-28T10:47:17.968Z,581.56
2022-07-28T10:48:16.629Z,578.93
2022-07-28T10:49:16.725Z,578.29
2022-07-28T10:50:16.653Z,575.95
2022-07-28T10:51:16.633Z,572.88
2022-07-28T10:52:37.620Z,567.56
2022-07-28T10:53:16.641Z,564.97
2022-07-28T10:54:17.570Z,563.38
2022-07-28T10:55:16.644Z,561.4
2022-07-28T10:56:16.641Z,560.75
2022-07-28T10:57:16.692Z,561.01
2022-07-28T10:58:16.649Z,564.26
2022-07-28T10:59:16.658Z,566.57
2022-07-28T11:00:20.826Z,568.69
2022-07-28T11:01:26.842Z,570.98
2022-07-28T11:02:16.836Z,571.51
2022-07-28T11:03:16.780Z,570.13
2022-07-28T11:04:16.964Z,569.39
2022-07-28T11:05:16.664Z,568.06
2022-07-28T11:06:16.668Z,566.55
2022-07-28T11:07:16.724Z,565.54
2022-07-28T11:08:16.670Z,564.16
2022-07-28T11:09:16.765Z,564.58
2022-07-28T11:10:16.671Z,564.57
2022-07-28T11:11:16.679Z,564.16
2022-07-28T11:12:16.821Z,563.39
2022-07-28T11:13:16.677Z,562.23
2022-07-28T11:14:16.986Z,562.59
2022-07-28T11:15:18.598Z,563.39
2022-07-28T11:16:16.723Z,564.88
2022-07-28T11:17:16.765Z,567.18
2022-07-28T11:18:16.689Z,569.31
2022-07-28T11:19:38.132Z,572.66
2022-07-28T11:20:34.537Z,574.59
2022-07-28T11:21:39.883Z,575.34
2022-07-28T11:22:35.107Z,577.25
2022-07-28T11:23:34.524Z,576.85
2022-07-28T11:24:34.524Z,575.13
2022-07-28T11:25:34.526Z,571.46
2022-07-28T11:26:34.527Z,568.4
2022-07-28T11:27:34.530Z,567.63
2022-07-28T11:28:34.534Z,565.51
2022-07-28T11:29:34.545Z,562.27
2022-07-28T11:30:34.541Z,557.43
2022-07-28T11:31:34.543Z,552.97
2022-07-28T11:32:42.365Z,547.66
2022-07-28T11:33:34.541Z,543.2
2022-07-28T11:34:34.544Z,538.03
2022-07-28T11:35:34.547Z,536.67
2022-07-28T11:36:34.547Z,539.62
2022-07-28T11:37:34.549Z,537.69
2022-07-28T11:38:34.590Z,536.7
2022-07-28T11:39:42.951Z,534.18
2022-07-28T11:40:34.561Z,531.96
2022-07-28T11:41:34.559Z,527.99
2022-07-28T11:42:34.565Z,524.59
2022-07-28T11:43:35.918Z,522.52
2022-07-28T11:44:34.565Z,521.15
2022-07-28T11:45:37.954Z,517.57
2022-07-28T11:46:34.722Z,512.75
2022-07-28T11:47:34.573Z,509.37
2022-07-28T11:48:34.604Z,506.12
2022-07-28T11:49:34.633Z,503.89
2022-07-28T11:50:34.582Z,503.13
2022-07-28T11:51:37.498Z,502.7
2022-07-28T11:52:34.577Z,504.1
2022-07-28T11:53:34.603Z,505.72
2022-07-28T11:54:34.592Z,505.73
2022-07-28T11:55:49.590Z,507.13
2022-07-28T11:56:34.594Z,508.99
2022-07-28T11:57:34.593Z,511.38
2022-07-28T11:58:34.645Z,512.39
2022-07-28T11:59:36.782Z,511.17
2022-07-28T12:00:34.597Z,514.36
2022-07-28T12:01:37.168Z,514.91
2022-07-28T12:02:34.700Z,520.86
2022-07-28T12:03:48.934Z,525.2
2022-07-28T12:04:34.672Z,524.63
2022-07-28T12:05:41.611Z,525.84
2022-07-28T12:06:35.486Z,530.64
2022-07-28T12:07:34.720Z,535.55
2022-07-28T12:08:34.649Z,538.29
2022-07-28T12:09:41.850Z,534.49
2022-07-28T12:10:53.730Z,529.59
2022-07-28T12:11:34.615Z,524.64
2022-07-28T12:12:34.619Z,519.09
2022-07-28T12:13:34.648Z,512.27
2022-07-28T12:14:38.618Z,504.21
2022-07-28T12:15:34.624Z,495.74
2022-07-28T12:16:34.710Z,488.36
2022-07-28T12:17:34.626Z,482